sensor_id;sensor_type;location;lat;lon;timestamp;P1;durP1;ratioP1;P2;durP2;ratioP2
67995;SDS011;54772;53.544;49.324;2022-07-23T00:00:56;6.50;;;4.12;;
67995;SDS011;54772;53.544;49.324;2022-07-23T00:03:24;5.20;;;4.00;;
67995;SDS011;54772;53.544;49.324;2022-07-23T00:05:50;5.18;;;4.00;;
67995;SDS011;54772;53.544;49.324;2022-07-23T00:08:17;6.40;;;4.43;;
67995;SDS011;54772;53.544;49.324;2022-07-23T00:10:44;4.85;;;3.90;;
67995;SDS011;54772;53.544;49.324;2022-07-23T00:13:11;6.20;;;4.28;;
67995;SDS011;54772;53.544;49.324;2022-07-23T00:15:38;4.22;;;3.55;;
67995;SDS011;54772;53.544;49.324;2022-07-23T00:18:05;4.75;;;3.70;;
67995;SDS011;54772;53.544;49.324;2022-07-23T00:20:31;5.35;;;3.65;;
67995;SDS011;54772;53.544;49.324;2022-07-23T00:22:58;4.30;;;3.60;;
67995;SDS011;54772;53.544;49.324;2022-07-23T00:25:26;5.78;;;3.90;;
67995;SDS011;54772;53.544;49.324;2022-07-23T00:27:53;4.57;;;3.53;;
67995;SDS011;54772;53.544;49.324;2022-07-23T00:30:20;4.78;;;3.33;;
67995;SDS011;54772;53.544;49.324;2022-07-23T00:32:51;3.80;;;3.08;;
67995;SDS011;54772;53.544;49.324;2022-07-23T00:35:20;4.32;;;3.30;;
67995;SDS011;54772;53.544;49.324;2022-07-23T00:37:47;3.97;;;3.30;;
67995;SDS011;54772;53.544;49.324;2022-07-23T00:40:14;4.35;;;3.50;;
67995;SDS011;54772;53.544;49.324;2022-07-23T00:42:41;4.87;;;3.35;;
67995;SDS011;54772;53.544;49.324;2022-07-23T00:45:11;3.95;;;3.58;;
67995;SDS011;54772;53.544;49.324;2022-07-23T00:47:38;4.53;;;3.60;;
67995;SDS011;54772;53.544;49.324;2022-07-23T00:50:06;4.45;;;3.30;;
67995;SDS011;54772;53.544;49.324;2022-07-23T00:52:34;5.40;;;3.53;;
67995;SDS011;54772;53.544;49.324;2022-07-23T00:55:01;5.85;;;3.60;;
67995;SDS011;54772;53.544;49.324;2022-07-23T00:57:32;5.20;;;3.17;;
67995;SDS011;54772;53.544;49.324;2022-07-23T00:59:59;3.67;;;3.22;;
67995;SDS011;54772;53.544;49.324;2022-07-23T01:02:26;3.97;;;3.22;;
67995;SDS011;54772;53.544;49.324;2022-07-23T01:04:53;4.30;;;3.28;;
67995;SDS011;54772;53.544;49.324;2022-07-23T01:07:20;4.00;;;3.40;;
67995;SDS011;54772;53.544;49.324;2022-07-23T01:09:48;6.32;;;3.42;;
67995;SDS011;54772;53.544;49.324;2022-07-23T01:12:15;4.18;;;3.50;;
67995;SDS011;54772;53.544;49.324;2022-07-23T01:14:42;3.75;;;3.30;;
67995;SDS011;54772;53.544;49.324;2022-07-23T01:17:09;4.90;;;3.45;;
67995;SDS011;54772;53.544;49.324;2022-07-23T01:19:35;3.67;;;3.20;;
67995;SDS011;54772;53.544;49.324;2022-07-23T01:22:03;4.47;;;3.40;;
67995;SDS011;54772;53.544;49.324;2022-07-23T01:24:30;3.80;;;3.40;;
67995;SDS011;54772;53.544;49.324;2022-07-23T01:26:57;3.40;;;3.00;;
67995;SDS011;54772;53.544;49.324;2022-07-23T01:29:24;4.28;;;3.25;;
67995;SDS011;54772;53.544;49.324;2022-07-23T01:31:50;4.07;;;3.40;;
67995;SDS011;54772;53.544;49.324;2022-07-23T01:34:17;3.67;;;3.25;;
67995;SDS011;54772;53.544;49.324;2022-07-23T01:36:44;3.90;;;3.10;;
67995;SDS011;54772;53.544;49.324;2022-07-23T01:39:12;3.90;;;3.22;;
67995;SDS011;54772;53.544;49.324;2022-07-23T01:41:38;4.85;;;3.17;;
67995;SDS011;54772;53.544;49.324;2022-07-23T01:44:06;3.35;;;3.00;;
67995;SDS011;54772;53.544;49.324;2022-07-23T01:46:33;5.05;;;3.15;;
67995;SDS011;54772;53.544;49.324;2022-07-23T01:49:00;3.83;;;3.03;;
67995;SDS011;54772;53.544;49.324;2022-07-23T01:51:27;3.45;;;3.12;;
67995;SDS011;54772;53.544;49.324;2022-07-23T01:53:54;3.67;;;3.37;;
67995;SDS011;54772;53.544;49.324;2022-07-23T01:56:20;4.60;;;3.40;;
67995;SDS011;54772;53.544;49.324;2022-07-23T01:58:48;4.37;;;3.92;;
67995;SDS011;54772;53.544;49.324;2022-07-23T02:01:14;4.70;;;3.60;;
67995;SDS011;54772;53.544;49.324;2022-07-23T02:03:41;4.20;;;3.80;;
67995;SDS011;54772;53.544;49.324;2022-07-23T02:06:08;4.00;;;3.60;;
67995;SDS011;54772;53.544;49.324;2022-07-23T02:08:35;4.93;;;3.35;;
67995;SDS011;54772;53.544;49.324;2022-07-23T02:11:01;5.43;;;3.70;;
67995;SDS011;54772;53.544;49.324;2022-07-23T02:13:28;6.03;;;3.40;;
67995;SDS011;54772;53.544;49.324;2022-07-23T02:15:55;4.10;;;3.58;;
67995;SDS011;54772;53.544;49.324;2022-07-23T02:18:22;3.90;;;3.33;;
67995;SDS011;54772;53.544;49.324;2022-07-23T02:20:49;5.40;;;3.20;;
67995;SDS011;54772;53.544;49.324;2022-07-23T02:23:16;3.58;;;3.03;;
67995;SDS011;54772;53.544;49.324;2022-07-23T02:25:43;4.18;;;3.25;;
67995;SDS011;54772;53.544;49.324;2022-07-23T02:28:09;5.95;;;3.50;;
67995;SDS011;54772;53.544;49.324;2022-07-23T02:30:36;5.82;;;3.70;;
67995;SDS011;54772;53.544;49.324;2022-07-23T02:33:04;5.82;;;3.85;;
67995;SDS011;54772;53.544;49.324;2022-07-23T02:35:31;4.95;;;3.90;;
67995;SDS011;54772;53.544;49.324;2022-07-23T02:37:58;4.90;;;4.00;;
67995;SDS011;54772;53.544;49.324;2022-07-23T02:40:24;5.85;;;3.67;;
67995;SDS011;54772;53.544;49.324;2022-07-23T02:42:51;4.12;;;3.72;;
67995;SDS011;54772;53.544;49.324;2022-07-23T02:45:18;4.35;;;3.70;;
67995;SDS011;54772;53.544;49.324;2022-07-23T02:47:44;4.22;;;3.50;;
67995;SDS011;54772;53.544;49.324;2022-07-23T02:50:11;5.05;;;3.35;;
67995;SDS011;54772;53.544;49.324;2022-07-23T02:52:38;4.50;;;3.30;;
67995;SDS011;54772;53.544;49.324;2022-07-23T02:55:05;4.60;;;3.50;;
67995;SDS011;54772;53.544;49.324;2022-07-23T02:57:32;3.62;;;3.30;;
67995;SDS011;54772;53.544;49.324;2022-07-23T02:59:59;8.73;;;4.18;;
67995;SDS011;54772;53.544;49.324;2022-07-23T03:02:26;4.93;;;4.00;;
67995;SDS011;54772;53.544;49.324;2022-07-23T03:04:53;4.65;;;3.92;;
67995;SDS011;54772;53.544;49.324;2022-07-23T03:07:20;5.05;;;3.87;;
67995;SDS011;54772;53.544;49.324;2022-07-23T03:09:47;4.25;;;3.72;;
67995;SDS011;54772;53.544;49.324;2022-07-23T03:12:14;5.22;;;4.18;;
67995;SDS011;54772;53.544;49.324;2022-07-23T03:14:41;4.85;;;4.07;;
67995;SDS011;54772;53.544;49.324;2022-07-23T03:17:08;5.25;;;3.67;;
67995;SDS011;54772;53.544;49.324;2022-07-23T03:19:35;5.45;;;3.80;;
67995;SDS011;54772;53.544;49.324;2022-07-23T03:22:06;4.62;;;3.90;;
67995;SDS011;54772;53.544;49.324;2022-07-23T03:24:33;4.72;;;3.83;;
67995;SDS011;54772;53.544;49.324;2022-07-23T03:27:19;6.28;;;4.20;;
67995;SDS011;54772;53.544;49.324;2022-07-23T03:29:46;5.72;;;3.75;;
67995;SDS011;54772;53.544;49.324;2022-07-23T03:32:13;6.55;;;5.10;;
67995;SDS011;54772;53.544;49.324;2022-07-23T03:34:40;7.68;;;5.80;;
67995;SDS011;54772;53.544;49.324;2022-07-23T03:37:07;8.00;;;5.35;;
67995;SDS011;54772;53.544;49.324;2022-07-23T03:39:34;8.63;;;5.35;;
67995;SDS011;54772;53.544;49.324;2022-07-23T03:42:01;9.20;;;6.03;;
67995;SDS011;54772;53.544;49.324;2022-07-23T03:44:28;11.20;;;5.72;;
67995;SDS011;54772;53.544;49.324;2022-07-23T03:46:55;14.32;;;7.07;;
67995;SDS011;54772;53.544;49.324;2022-07-23T03:49:22;12.23;;;7.32;;
67995;SDS011;54772;53.544;49.324;2022-07-23T03:51:49;13.77;;;7.47;;
67995;SDS011;54772;53.544;49.324;2022-07-23T03:54:16;13.13;;;7.15;;
67995;SDS011;54772;53.544;49.324;2022-07-23T03:56:43;11.30;;;6.00;;
67995;SDS011;54772;53.544;49.324;2022-07-23T03:59:10;13.62;;;7.22;;
67995;SDS011;54772;53.544;49.324;2022-07-23T04:01:37;13.50;;;6.53;;
67995;SDS011;54772;53.544;49.324;2022-07-23T04:04:04;9.27;;;6.05;;
67995;SDS011;54772;53.544;49.324;2022-07-23T04:06:31;11.73;;;6.28;;
67995;SDS011;54772;53.544;49.324;2022-07-23T04:08:58;10.80;;;5.50;;
67995;SDS011;54772;53.544;49.324;2022-07-23T04:11:25;10.48;;;5.32;;
67995;SDS011;54772;53.544;49.324;2022-07-23T04:13:51;9.60;;;5.70;;
67995;SDS011;54772;53.544;49.324;2022-07-23T04:16:19;6.10;;;4.65;;
67995;SDS011;54772;53.544;49.324;2022-07-23T04:18:45;7.07;;;4.72;;
67995;SDS011;54772;53.544;49.324;2022-07-23T04:21:12;6.62;;;4.53;;
67995;SDS011;54772;53.544;49.324;2022-07-23T04:23:39;6.75;;;3.92;;
67995;SDS011;54772;53.544;49.324;2022-07-23T04:26:06;7.90;;;4.90;;
67995;SDS011;54772;53.544;49.324;2022-07-23T04:28:33;8.00;;;4.87;;
67995;SDS011;54772;53.544;49.324;2022-07-23T04:31:00;4.70;;;4.12;;
67995;SDS011;54772;53.544;49.324;2022-07-23T04:33:27;6.40;;;4.07;;
67995;SDS011;54772;53.544;49.324;2022-07-23T04:35:54;7.57;;;3.95;;
67995;SDS011;54772;53.544;49.324;2022-07-23T04:38:20;6.05;;;3.87;;
67995;SDS011;54772;53.544;49.324;2022-07-23T04:40:47;6.22;;;4.05;;
67995;SDS011;54772;53.544;49.324;2022-07-23T04:43:14;6.35;;;4.47;;
67995;SDS011;54772;53.544;49.324;2022-07-23T04:45:41;8.43;;;3.75;;
67995;SDS011;54772;53.544;49.324;2022-07-23T04:48:08;6.57;;;3.80;;
67995;SDS011;54772;53.544;49.324;2022-07-23T04:50:35;4.57;;;3.80;;
67995;SDS011;54772;53.544;49.324;2022-07-23T04:53:02;4.47;;;3.90;;
67995;SDS011;54772;53.544;49.324;2022-07-23T04:55:29;5.62;;;3.80;;
67995;SDS011;54772;53.544;49.324;2022-07-23T04:57:56;4.85;;;3.40;;
67995;SDS011;54772;53.544;49.324;2022-07-23T05:00:23;6.00;;;4.20;;
67995;SDS011;54772;53.544;49.324;2022-07-23T05:02:49;5.05;;;4.28;;
67995;SDS011;54772;53.544;49.324;2022-07-23T05:05:16;7.37;;;4.22;;
67995;SDS011;54772;53.544;49.324;2022-07-23T05:07:43;5.25;;;3.97;;
67995;SDS011;54772;53.544;49.324;2022-07-23T05:10:10;8.45;;;4.47;;
67995;SDS011;54772;53.544;49.324;2022-07-23T05:12:37;8.90;;;4.87;;
67995;SDS011;54772;53.544;49.324;2022-07-23T05:15:04;5.20;;;3.97;;
67995;SDS011;54772;53.544;49.324;2022-07-23T05:17:31;5.60;;;4.22;;
67995;SDS011;54772;53.544;49.324;2022-07-23T05:19:58;8.90;;;4.20;;
67995;SDS011;54772;53.544;49.324;2022-07-23T05:22:24;4.95;;;4.20;;
67995;SDS011;54772;53.544;49.324;2022-07-23T05:24:51;6.47;;;4.30;;
67995;SDS011;54772;53.544;49.324;2022-07-23T05:27:18;4.95;;;3.85;;
67995;SDS011;54772;53.544;49.324;2022-07-23T05:29:45;7.15;;;3.90;;
67995;SDS011;54772;53.544;49.324;2022-07-23T05:32:12;5.68;;;3.67;;
67995;SDS011;54772;53.544;49.324;2022-07-23T05:34:38;4.72;;;4.20;;
67995;SDS011;54772;53.544;49.324;2022-07-23T05:37:06;8.20;;;4.10;;
67995;SDS011;54772;53.544;49.324;2022-07-23T05:39:33;5.60;;;3.83;;
67995;SDS011;54772;53.544;49.324;2022-07-23T05:42:00;4.60;;;3.78;;
67995;SDS011;54772;53.544;49.324;2022-07-23T05:44:27;4.45;;;3.20;;
67995;SDS011;54772;53.544;49.324;2022-07-23T05:46:54;7.30;;;3.83;;
67995;SDS011;54772;53.544;49.324;2022-07-23T05:49:21;5.57;;;3.90;;
67995;SDS011;54772;53.544;49.324;2022-07-23T05:51:47;4.30;;;3.90;;
67995;SDS011;54772;53.544;49.324;2022-07-23T05:54:14;5.10;;;4.30;;
67995;SDS011;54772;53.544;49.324;2022-07-23T05:56:41;4.53;;;3.60;;
67995;SDS011;54772;53.544;49.324;2022-07-23T05:59:08;5.60;;;4.45;;
67995;SDS011;54772;53.544;49.324;2022-07-23T06:01:35;3.72;;;3.35;;
67995;SDS011;54772;53.544;49.324;2022-07-23T06:04:02;4.60;;;3.55;;
67995;SDS011;54772;53.544;49.324;2022-07-23T06:06:29;5.57;;;4.10;;
67995;SDS011;54772;53.544;49.324;2022-07-23T06:08:55;4.53;;;3.30;;
67995;SDS011;54772;53.544;49.324;2022-07-23T06:11:22;6.30;;;4.35;;
67995;SDS011;54772;53.544;49.324;2022-07-23T06:13:49;5.57;;;4.18;;
67995;SDS011;54772;53.544;49.324;2022-07-23T06:16:16;5.18;;;4.03;;
67995;SDS011;54772;53.544;49.324;2022-07-23T06:18:42;7.07;;;3.35;;
67995;SDS011;54772;53.544;49.324;2022-07-23T06:21:09;4.15;;;3.30;;
67995;SDS011;54772;53.544;49.324;2022-07-23T06:23:36;5.00;;;3.15;;
67995;SDS011;54772;53.544;49.324;2022-07-23T06:26:02;5.18;;;3.45;;
67995;SDS011;54772;53.544;49.324;2022-07-23T06:28:29;4.93;;;3.30;;
67995;SDS011;54772;53.544;49.324;2022-07-23T06:30:56;7.25;;;3.85;;
67995;SDS011;54772;53.544;49.324;2022-07-23T06:33:22;5.75;;;3.62;;
67995;SDS011;54772;53.544;49.324;2022-07-23T06:35:49;4.47;;;4.00;;
67995;SDS011;54772;53.544;49.324;2022-07-23T06:38:16;4.45;;;3.90;;
67995;SDS011;54772;53.544;49.324;2022-07-23T06:40:42;5.78;;;4.10;;
67995;SDS011;54772;53.544;49.324;2022-07-23T06:43:10;3.78;;;3.33;;
67995;SDS011;54772;53.544;49.324;2022-07-23T06:45:37;5.47;;;3.15;;
67995;SDS011;54772;53.544;49.324;2022-07-23T06:48:04;8.23;;;3.78;;
67995;SDS011;54772;53.544;49.324;2022-07-23T06:50:30;4.93;;;3.53;;
67995;SDS011;54772;53.544;49.324;2022-07-23T06:52:57;3.55;;;3.22;;
67995;SDS011;54772;53.544;49.324;2022-07-23T06:55:24;3.85;;;3.42;;
67995;SDS011;54772;53.544;49.324;2022-07-23T06:57:51;4.00;;;3.60;;
67995;SDS011;54772;53.544;49.324;2022-07-23T07:00:17;3.80;;;3.50;;
67995;SDS011;54772;53.544;49.324;2022-07-23T07:02:44;5.68;;;4.00;;
67995;SDS011;54772;53.544;49.324;2022-07-23T07:05:11;4.82;;;3.90;;
67995;SDS011;54772;53.544;49.324;2022-07-23T07:07:38;7.28;;;4.10;;
67995;SDS011;54772;53.544;49.324;2022-07-23T07:10:04;3.95;;;3.55;;
67995;SDS011;54772;53.544;49.324;2022-07-23T07:12:31;4.03;;;3.12;;
67995;SDS011;54772;53.544;49.324;2022-07-23T07:14:58;5.07;;;3.37;;
67995;SDS011;54772;53.544;49.324;2022-07-23T07:17:25;4.78;;;3.25;;
67995;SDS011;54772;53.544;49.324;2022-07-23T07:19:52;5.35;;;3.75;;
67995;SDS011;54772;53.544;49.324;2022-07-23T07:22:18;5.00;;;3.45;;
67995;SDS011;54772;53.544;49.324;2022-07-23T07:24:45;5.25;;;3.20;;
67995;SDS011;54772;53.544;49.324;2022-07-23T07:27:12;3.55;;;2.75;;
67995;SDS011;54772;53.544;49.324;2022-07-23T07:29:38;4.45;;;3.08;;
67995;SDS011;54772;53.544;49.324;2022-07-23T07:32:05;4.30;;;3.60;;
67995;SDS011;54772;53.544;49.324;2022-07-23T07:34:32;5.78;;;2.90;;
67995;SDS011;54772;53.544;49.324;2022-07-23T07:36:59;3.30;;;2.78;;
67995;SDS011;54772;53.544;49.324;2022-07-23T07:39:25;3.67;;;2.72;;
67995;SDS011;54772;53.544;49.324;2022-07-23T07:41:52;3.17;;;2.42;;
67995;SDS011;54772;53.544;49.324;2022-07-23T07:44:19;3.10;;;2.80;;
67995;SDS011;54772;53.544;49.324;2022-07-23T07:46:45;7.72;;;3.80;;
67995;SDS011;54772;53.544;49.324;2022-07-23T07:49:12;4.78;;;3.08;;
67995;SDS011;54772;53.544;49.324;2022-07-23T07:51:39;5.80;;;3.03;;
67995;SDS011;54772;53.544;49.324;2022-07-23T07:54:06;7.35;;;3.53;;
67995;SDS011;54772;53.544;49.324;2022-07-23T07:56:32;4.60;;;3.28;;
67995;SDS011;54772;53.544;49.324;2022-07-23T07:58:59;3.10;;;2.80;;
67995;SDS011;54772;53.544;49.324;2022-07-23T08:01:26;3.58;;;3.00;;
67995;SDS011;54772;53.544;49.324;2022-07-23T08:03:53;4.85;;;2.92;;
67995;SDS011;54772;53.544;49.324;2022-07-23T08:06:20;3.33;;;3.03;;
67995;SDS011;54772;53.544;49.324;2022-07-23T08:08:46;4.72;;;2.87;;
67995;SDS011;54772;53.544;49.324;2022-07-23T08:11:13;3.75;;;2.58;;
67995;SDS011;54772;53.544;49.324;2022-07-23T08:13:40;3.30;;;3.00;;
67995;SDS011;54772;53.544;49.324;2022-07-23T08:16:10;5.70;;;3.17;;
67995;SDS011;54772;53.544;49.324;2022-07-23T08:18:36;5.95;;;3.20;;
67995;SDS011;54772;53.544;49.324;2022-07-23T08:21:03;2.95;;;2.70;;
67995;SDS011;54772;53.544;49.324;2022-07-23T08:23:30;4.40;;;2.65;;
67995;SDS011;54772;53.544;49.324;2022-07-23T08:25:58;3.42;;;2.87;;
67995;SDS011;54772;53.544;49.324;2022-07-23T08:28:25;4.55;;;3.22;;
67995;SDS011;54772;53.544;49.324;2022-07-23T08:30:52;4.12;;;3.08;;
67995;SDS011;54772;53.544;49.324;2022-07-23T08:33:19;3.97;;;3.12;;
67995;SDS011;54772;53.544;49.324;2022-07-23T08:35:46;3.20;;;2.83;;
67995;SDS011;54772;53.544;49.324;2022-07-23T08:38:16;3.75;;;2.50;;
67995;SDS011;54772;53.544;49.324;2022-07-23T08:40:47;3.62;;;2.47;;
67995;SDS011;54772;53.544;49.324;2022-07-23T08:43:16;1.25;;;1.02;;
67995;SDS011;54772;53.544;49.324;2022-07-23T08:45:46;3.90;;;2.42;;
67995;SDS011;54772;53.544;49.324;2022-07-23T08:48:20;5.93;;;3.10;;
67995;SDS011;54772;53.544;49.324;2022-07-23T08:50:49;6.43;;;3.03;;
67995;SDS011;54772;53.544;49.324;2022-07-23T08:53:18;3.40;;;2.58;;
67995;SDS011;54772;53.544;49.324;2022-07-23T08:55:48;11.38;;;3.65;;
67995;SDS011;54772;53.544;49.324;2022-07-23T08:58:16;4.70;;;3.10;;
67995;SDS011;54772;53.544;49.324;2022-07-23T09:00:44;7.00;;;3.42;;
67995;SDS011;54772;53.544;49.324;2022-07-23T09:03:15;4.87;;;3.58;;
67995;SDS011;54772;53.544;49.324;2022-07-23T09:05:49;8.00;;;3.70;;
67995;SDS011;54772;53.544;49.324;2022-07-23T09:08:17;6.05;;;3.28;;
67995;SDS011;54772;53.544;49.324;2022-07-23T09:13:28;3.72;;;2.72;;
67995;SDS011;54772;53.544;49.324;2022-07-23T09:15:59;4.03;;;2.80;;
67995;SDS011;54772;53.544;49.324;2022-07-23T09:19:05;6.53;;;3.42;;
67995;SDS011;54772;53.544;49.324;2022-07-23T09:24:00;4.85;;;2.50;;
67995;SDS011;54772;53.544;49.324;2022-07-23T09:26:30;3.60;;;2.80;;
67995;SDS011;54772;53.544;49.324;2022-07-23T09:29:24;5.22;;;2.80;;
67995;SDS011;54772;53.544;49.324;2022-07-23T09:31:58;3.97;;;2.67;;
67995;SDS011;54772;53.544;49.324;2022-07-23T09:34:34;3.17;;;2.50;;
67995;SDS011;54772;53.544;49.324;2022-07-23T09:37:08;4.57;;;2.45;;
67995;SDS011;54772;53.544;49.324;2022-07-23T09:39:35;4.00;;;3.00;;
67995;SDS011;54772;53.544;49.324;2022-07-23T09:42:15;4.28;;;2.78;;
67995;SDS011;54772;53.544;49.324;2022-07-23T09:44:51;6.00;;;2.97;;
67995;SDS011;54772;53.544;49.324;2022-07-23T09:47:18;5.40;;;3.05;;
67995;SDS011;54772;53.544;49.324;2022-07-23T09:52:52;4.78;;;2.85;;
67995;SDS011;54772;53.544;49.324;2022-07-23T09:55:19;2.92;;;2.55;;
67995;SDS011;54772;53.544;49.324;2022-07-23T09:57:54;4.22;;;3.00;;
67995;SDS011;54772;53.544;49.324;2022-07-23T10:00:22;4.22;;;3.22;;
67995;SDS011;54772;53.544;49.324;2022-07-23T10:02:49;5.00;;;3.10;;
67995;SDS011;54772;53.544;49.324;2022-07-23T10:05:16;4.05;;;2.78;;
67995;SDS011;54772;53.544;49.324;2022-07-23T10:07:42;3.53;;;2.72;;
67995;SDS011;54772;53.544;49.324;2022-07-23T10:10:10;3.83;;;2.72;;
67995;SDS011;54772;53.544;49.324;2022-07-23T10:12:37;3.03;;;2.70;;
67995;SDS011;54772;53.544;49.324;2022-07-23T10:15:23;4.20;;;2.95;;
67995;SDS011;54772;53.544;49.324;2022-07-23T10:17:51;5.32;;;2.90;;
67995;SDS011;54772;53.544;49.324;2022-07-23T10:20:17;4.50;;;2.92;;
67995;SDS011;54772;53.544;49.324;2022-07-23T10:22:46;4.35;;;3.40;;
67995;SDS011;54772;53.544;49.324;2022-07-23T10:36:47;4.95;;;3.37;;
67995;SDS011;54772;53.544;49.324;2022-07-23T10:39:32;4.62;;;2.78;;
67995;SDS011;54772;53.544;49.324;2022-07-23T10:42:10;4.43;;;3.12;;
67995;SDS011;54772;53.544;49.324;2022-07-23T10:44:42;4.18;;;3.62;;
67995;SDS011;54772;53.544;49.324;2022-07-23T10:47:10;4.50;;;2.95;;
67995;SDS011;54772;53.544;49.324;2022-07-23T10:50:16;3.47;;;2.92;;
67995;SDS011;54772;53.544;49.324;2022-07-23T10:55:40;9.88;;;3.85;;
67995;SDS011;54772;53.544;49.324;2022-07-23T10:58:08;6.78;;;3.80;;
67995;SDS011;54772;53.544;49.324;2022-07-23T11:00:36;7.37;;;3.83;;
67995;SDS011;54772;53.544;49.324;2022-07-23T11:03:28;18.70;;;8.02;;
67995;SDS011;54772;53.544;49.324;2022-07-23T11:05:55;14.87;;;5.53;;
67995;SDS011;54772;53.544;49.324;2022-07-23T11:08:21;15.43;;;5.80;;
67995;SDS011;54772;53.544;49.324;2022-07-23T11:10:55;17.35;;;6.07;;
67995;SDS011;54772;53.544;49.324;2022-07-23T11:13:46;11.43;;;4.87;;
67995;SDS011;54772;53.544;49.324;2022-07-23T11:16:14;11.25;;;4.47;;
67995;SDS011;54772;53.544;49.324;2022-07-23T11:34:50;9.05;;;4.72;;
67995;SDS011;54772;53.544;49.324;2022-07-23T11:37:29;8.93;;;4.75;;
67995;SDS011;54772;53.544;49.324;2022-07-23T11:40:08;9.73;;;4.57;;
67995;SDS011;54772;53.544;49.324;2022-07-23T11:42:50;9.43;;;5.05;;
67995;SDS011;54772;53.544;49.324;2022-07-23T11:45:21;9.25;;;5.15;;
67995;SDS011;54772;53.544;49.324;2022-07-23T11:47:49;12.02;;;5.82;;
67995;SDS011;54772;53.544;49.324;2022-07-23T11:50:16;11.45;;;5.82;;
67995;SDS011;54772;53.544;49.324;2022-07-23T11:52:43;11.50;;;6.05;;
67995;SDS011;54772;53.544;49.324;2022-07-23T11:55:10;13.00;;;6.18;;
67995;SDS011;54772;53.544;49.324;2022-07-23T11:57:40;6.12;;;4.45;;
67995;SDS011;54772;53.544;49.324;2022-07-23T12:00:17;6.90;;;4.00;;
67995;SDS011;54772;53.544;49.324;2022-07-23T12:02:49;7.27;;;4.57;;
67995;SDS011;54772;53.544;49.324;2022-07-23T12:05:23;7.78;;;3.95;;
67995;SDS011;54772;53.544;49.324;2022-07-23T12:07:51;8.35;;;4.20;;
67995;SDS011;54772;53.544;49.324;2022-07-23T12:10:23;9.00;;;4.43;;
67995;SDS011;54772;53.544;49.324;2022-07-23T12:15:23;7.25;;;4.45;;
67995;SDS011;54772;53.544;49.324;2022-07-23T12:17:56;4.90;;;3.35;;
67995;SDS011;54772;53.544;49.324;2022-07-23T12:20:25;4.35;;;3.33;;
67995;SDS011;54772;53.544;49.324;2022-07-23T12:22:57;4.47;;;3.00;;
67995;SDS011;54772;53.544;49.324;2022-07-23T12:25:26;6.10;;;3.03;;
67995;SDS011;54772;53.544;49.324;2022-07-23T12:28:02;4.90;;;3.20;;
67995;SDS011;54772;53.544;49.324;2022-07-23T12:36:00;5.75;;;2.87;;
67995;SDS011;54772;53.544;49.324;2022-07-23T12:38:36;4.65;;;2.87;;
67995;SDS011;54772;53.544;49.324;2022-07-23T12:41:12;5.07;;;3.10;;
67995;SDS011;54772;53.544;49.324;2022-07-23T12:43:40;3.83;;;3.20;;
67995;SDS011;54772;53.544;49.324;2022-07-23T12:46:11;5.18;;;3.40;;
67995;SDS011;54772;53.544;49.324;2022-07-23T12:51:17;5.50;;;3.22;;
67995;SDS011;54772;53.544;49.324;2022-07-23T12:53:46;4.32;;;2.83;;
67995;SDS011;54772;53.544;49.324;2022-07-23T12:56:16;3.78;;;2.78;;
67995;SDS011;54772;53.544;49.324;2022-07-23T12:58:46;4.20;;;2.70;;
67995;SDS011;54772;53.544;49.324;2022-07-23T13:01:40;3.33;;;2.75;;
67995;SDS011;54772;53.544;49.324;2022-07-23T13:04:09;4.47;;;2.75;;
67995;SDS011;54772;53.544;49.324;2022-07-23T13:06:41;4.85;;;2.97;;
67995;SDS011;54772;53.544;49.324;2022-07-23T13:09:14;5.12;;;2.85;;
67995;SDS011;54772;53.544;49.324;2022-07-23T13:11:43;3.62;;;2.72;;
67995;SDS011;54772;53.544;49.324;2022-07-23T13:14:11;3.33;;;2.90;;
67995;SDS011;54772;53.544;49.324;2022-07-23T13:16:38;5.25;;;2.78;;
67995;SDS011;54772;53.544;49.324;2022-07-23T13:19:05;5.53;;;2.62;;
67995;SDS011;54772;53.544;49.324;2022-07-23T13:21:32;4.97;;;2.87;;
67995;SDS011;54772;53.544;49.324;2022-07-23T13:23:59;3.78;;;3.20;;
67995;SDS011;54772;53.544;49.324;2022-07-23T13:26:26;3.72;;;3.30;;
67995;SDS011;54772;53.544;49.324;2022-07-23T13:28:53;5.35;;;3.70;;
67995;SDS011;54772;53.544;49.324;2022-07-23T13:31:20;5.60;;;4.10;;
67995;SDS011;54772;53.544;49.324;2022-07-23T13:33:47;5.43;;;3.67;;
67995;SDS011;54772;53.544;49.324;2022-07-23T13:36:14;6.32;;;4.80;;
67995;SDS011;54772;53.544;49.324;2022-07-23T13:38:41;7.80;;;4.60;;
67995;SDS011;54772;53.544;49.324;2022-07-23T13:41:08;6.30;;;4.72;;
67995;SDS011;54772;53.544;49.324;2022-07-23T13:43:35;8.00;;;4.55;;
67995;SDS011;54772;53.544;49.324;2022-07-23T13:46:02;8.02;;;4.78;;
67995;SDS011;54772;53.544;49.324;2022-07-23T13:48:28;5.10;;;4.15;;
67995;SDS011;54772;53.544;49.324;2022-07-23T13:50:55;6.28;;;4.43;;
67995;SDS011;54772;53.544;49.324;2022-07-23T13:53:22;9.50;;;5.62;;
67995;SDS011;54772;53.544;49.324;2022-07-23T13:55:52;9.27;;;5.32;;
67995;SDS011;54772;53.544;49.324;2022-07-23T13:58:19;6.95;;;4.65;;
67995;SDS011;54772;53.544;49.324;2022-07-23T14:00:47;7.12;;;4.82;;
67995;SDS011;54772;53.544;49.324;2022-07-23T14:03:16;9.75;;;5.43;;
67995;SDS011;54772;53.544;49.324;2022-07-23T14:05:43;6.85;;;4.60;;
67995;SDS011;54772;53.544;49.324;2022-07-23T14:08:10;6.37;;;4.45;;
67995;SDS011;54772;53.544;49.324;2022-07-23T14:10:37;6.35;;;4.47;;
67995;SDS011;54772;53.544;49.324;2022-07-23T14:13:04;6.68;;;4.68;;
67995;SDS011;54772;53.544;49.324;2022-07-23T14:15:31;6.43;;;4.72;;
67995;SDS011;54772;53.544;49.324;2022-07-23T14:17:58;5.97;;;4.55;;
67995;SDS011;54772;53.544;49.324;2022-07-23T14:20:25;5.60;;;4.12;;
67995;SDS011;54772;53.544;49.324;2022-07-23T14:22:52;7.25;;;4.72;;
67995;SDS011;54772;53.544;49.324;2022-07-23T14:25:20;6.90;;;4.72;;
67995;SDS011;54772;53.544;49.324;2022-07-23T14:27:47;6.75;;;4.68;;
67995;SDS011;54772;53.544;49.324;2022-07-23T14:30:14;8.45;;;4.62;;
67995;SDS011;54772;53.544;49.324;2022-07-23T14:32:41;7.10;;;4.12;;
67995;SDS011;54772;53.544;49.324;2022-07-23T14:35:08;4.90;;;3.92;;
67995;SDS011;54772;53.544;49.324;2022-07-23T14:37:35;5.65;;;4.20;;
67995;SDS011;54772;53.544;49.324;2022-07-23T14:40:02;5.65;;;4.05;;
67995;SDS011;54772;53.544;49.324;2022-07-23T14:42:29;5.53;;;4.00;;
67995;SDS011;54772;53.544;49.324;2022-07-23T14:44:56;5.72;;;3.87;;
67995;SDS011;54772;53.544;49.324;2022-07-23T14:47:25;5.65;;;3.83;;
67995;SDS011;54772;53.544;49.324;2022-07-23T14:49:54;6.25;;;4.18;;
67995;SDS011;54772;53.544;49.324;2022-07-23T14:52:21;6.00;;;4.00;;
67995;SDS011;54772;53.544;49.324;2022-07-23T14:54:48;5.05;;;3.87;;
67995;SDS011;54772;53.544;49.324;2022-07-23T14:57:15;6.50;;;3.78;;
67995;SDS011;54772;53.544;49.324;2022-07-23T14:59:41;6.57;;;4.75;;
67995;SDS011;54772;53.544;49.324;2022-07-23T15:02:08;6.35;;;3.85;;
67995;SDS011;54772;53.544;49.324;2022-07-23T15:04:35;9.00;;;4.60;;
67995;SDS011;54772;53.544;49.324;2022-07-23T15:07:02;5.87;;;3.87;;
67995;SDS011;54772;53.544;49.324;2022-07-23T15:09:29;8.13;;;3.75;;
67995;SDS011;54772;53.544;49.324;2022-07-23T15:11:55;5.05;;;3.85;;
67995;SDS011;54772;53.544;49.324;2022-07-23T15:14:22;6.22;;;4.00;;
67995;SDS011;54772;53.544;49.324;2022-07-23T15:16:49;6.70;;;4.50;;
67995;SDS011;54772;53.544;49.324;2022-07-23T15:19:16;7.87;;;4.37;;
67995;SDS011;54772;53.544;49.324;2022-07-23T15:21:43;7.47;;;4.80;;
67995;SDS011;54772;53.544;49.324;2022-07-23T15:24:09;8.68;;;4.70;;
67995;SDS011;54772;53.544;49.324;2022-07-23T15:26:37;6.78;;;4.10;;
67995;SDS011;54772;53.544;49.324;2022-07-23T15:29:04;8.68;;;4.70;;